Time;durP1;ratioP1;P1;durP2;ratioP2;P2;SDS_P1;SDS_P2;PMS_P1;PMS_P2;Temp;Humidity;BMP_temperature;BMP_pressure;BME280_temperature;BME280_humidity;BME280_pressure;Samples;Min_cycle;Max_cycle;Signal;HPM_P1;HPM_P2
2020/12/08 00:02:51;;;;;;;12.58;6.45;;;;;;;19.69;52.30;99897.73;2335978;74;51590;-77
2020/12/08 00:05:53;;;;;;;11.12;6.58;;;;;;;19.67;52.32;99894.44;2356105;75;51276;-78
2020/12/08 00:08:55;;;;;;;13.80;6.97;;;;;;;19.66;52.28;99898.12;2357319;75;51964;-77
2020/12/08 00:11:57;;;;;;;14.10;6.95;;;;;;;19.65;52.29;99887.09;2355694;75;50807;-77
2020/12/08 00:14:59;;;;;;;12.05;6.35;;;;;;;19.64;52.39;99887.30;2354187;75;51357;-77
2020/12/08 00:18:02;;;;;;;10.72;6.80;;;;;;;19.65;52.20;99887.09;2352162;75;51541;-76
2020/12/08 00:21:04;;;;;;;13.60;6.78;;;;;;;19.63;52.19;99897.21;2351728;75;50482;-78
2020/12/08 00:24:06;;;;;;;12.03;6.22;;;;;;;19.65;52.20;99891.61;2351811;75;51597;-76
2020/12/08 00:27:09;;;;;;;15.25;6.92;;;;;;;19.62;52.39;99895.55;2351765;75;50703;-77
2020/12/08 00:30:12;;;;;;;13.35;6.87;;;;;;;19.58;52.37;99885.75;2351749;75;51547;-79
2020/12/08 00:33:15;;;;;;;10.20;6.75;;;;;;;19.59;52.34;99878.00;2351780;75;51605;-77
2020/12/08 00:36:17;;;;;;;11.83;6.95;;;;;;;19.57;52.30;99874.72;2351557;75;51545;-76
2020/12/08 00:39:19;;;;;;;10.48;6.87;;;;;;;19.59;52.17;99875.31;2351657;75;50357;-76
2020/12/08 00:42:21;;;;;;;11.08;6.37;;;;;;;19.56;52.34;99875.73;2351147;75;50315;-76
2020/12/08 00:45:23;;;;;;;10.63;6.55;;;;;;;19.54;52.43;99876.98;2349446;75;50470;-76
2020/12/08 00:48:26;;;;;;;11.18;6.55;;;;;;;19.55;52.27;99871.42;2349889;75;51579;-76
2020/12/08 00:51:28;;;;;;;9.25;6.25;;;;;;;19.55;52.30;99879.98;2349914;75;51694;-76
2020/12/08 00:54:30;;;;;;;12.40;6.78;;;;;;;19.56;52.21;99874.92;2350021;75;50722;-76
2020/12/08 00:57:32;;;;;;;14.13;7.37;;;;;;;19.53;52.26;99863.27;2350186;75;50329;-77
2020/12/08 01:00:34;;;;;;;13.83;7.10;;;;;;;19.52;52.20;99855.73;2350227;75;50375;-77
2020/12/08 01:03:37;;;;;;;15.38;7.30;;;;;;;19.50;52.33;99848.41;2350036;75;50319;-76
2020/12/08 01:06:40;;;;;;;14.35;6.92;;;;;;;19.52;52.15;99859.77;2350224;75;50428;-77
2020/12/08 01:09:42;;;;;;;10.85;6.83;;;;;;;19.52;52.20;99857.08;2350135;75;50757;-76
2020/12/08 01:12:44;;;;;;;11.88;7.12;;;;;;;19.51;52.11;99859.44;2350620;74;51545;-77
2020/12/08 01:15:47;;;;;;;12.73;6.80;;;;;;;19.50;52.16;99856.98;2352373;75;50708;-77
2020/12/08 01:18:49;;;;;;;14.68;7.33;;;;;;;19.49;52.26;99860.67;2352242;75;50273;-77
2020/12/08 01:21:52;;;;;;;11.57;7.20;;;;;;;19.48;52.24;99860.38;2351983;75;50651;-77
2020/12/08 01:24:54;;;;;;;14.18;7.50;;;;;;;19.46;52.27;99873.99;2352122;75;51592;-76
2020/12/08 01:27:57;;;;;;;12.07;7.05;;;;;;;19.45;52.28;99878.24;2351975;75;51495;-76
2020/12/08 01:30:59;;;;;;;10.63;7.15;;;;;;;19.44;52.28;99884.10;2352011;75;51432;-76
2020/12/08 01:34:01;;;;;;;11.78;7.37;;;;;;;19.44;52.28;99877.39;2351846;75;50344;-77
2020/12/08 01:37:03;;;;;;;8.78;6.47;;;;;;;19.42;52.30;99872.77;2352029;75;50368;-77
2020/12/08 01:40:06;;;;;;;10.48;6.55;;;;;;;19.42;52.28;99869.23;2351955;75;50411;-77
2020/12/08 01:43:08;;;;;;;15.53;7.92;;;;;;;19.42;52.26;99866.06;2363125;74;50387;-77
2020/12/08 01:46:10;;;;;;;14.53;7.90;;;;;;;19.42;52.23;99867.91;2382157;74;50295;-77
2020/12/08 01:49:12;;;;;;;11.83;7.03;;;;;;;19.41;52.28;99867.08;2383664;74;50781;-78
2020/12/08 01:52:17;;;;;;;11.70;7.50;;;;;;;19.40;52.36;99868.65;2392927;74;51584;-78
2020/12/08 01:55:20;;;;;;;10.78;7.10;;;;;;;19.41;52.15;99870.29;2393220;74;51522;-77
2020/12/08 01:58:22;;;;;;;11.35;7.20;;;;;;;19.39;52.19;99862.44;2392954;74;50221;-77
2020/12/08 02:01:24;;;;;;;11.63;6.97;;;;;;;19.38;52.26;99859.45;2392787;74;50341;-77
2020/12/08 02:04:26;;;;;;;9.08;6.85;;;;;;;19.39;52.24;99874.50;2391763;74;50663;-77
2020/12/08 02:07:29;;;;;;;12.10;7.30;;;;;;;19.37;52.23;99864.52;2381109;74;50717;-77
2020/12/08 02:10:31;;;;;;;11.30;7.05;;;;;;;19.35;52.20;99864.72;2380889;74;50357;-77
2020/12/08 02:13:33;;;;;;;11.08;7.05;;;;;;;19.35;52.29;99860.69;2359467;74;50738;-77
2020/12/08 02:16:36;;;;;;;15.30;7.60;;;;;;;19.35;52.25;99868.73;2339899;75;51510;-77
2020/12/08 02:19:38;;;;;;;9.78;6.83;;;;;;;19.35;52.15;99862.03;2339595;75;50715;-77
2020/12/08 02:22:42;;;;;;;13.45;7.60;;;;;;;19.33;52.27;99852.55;2339379;76;51535;-77
2020/12/08 02:25:44;;;;;;;11.30;7.67;;;;;;;19.32;52.37;99854.41;2340078;75;50319;-78
2020/12/08 02:28:47;;;;;;;10.60;7.85;;;;;;;19.30;52.37;99853.78;2340051;75;50726;-77
2020/12/08 02:31:49;;;;;;;11.90;7.72;;;;;;;19.30;52.34;99847.08;2339993;76;50691;-77
2020/12/08 02:34:51;;;;;;;11.00;7.12;;;;;;;19.30;52.38;99843.58;2339939;76;51551;-78
2020/12/08 02:37:53;;;;;;;11.55;7.53;;;;;;;19.32;52.29;99849.05;2340463;75;51491;-77
2020/12/08 02:40:55;;;;;;;11.80;7.70;;;;;;;19.30;52.28;99853.78;2340597;75;51519;-77
2020/12/08 02:43:58;;;;;;;12.73;7.10;;;;;;;19.28;52.45;99851.00;2362649;74;51527;-78
2020/12/08 02:47:00;;;;;;;14.83;7.22;;;;;;;19.28;52.33;99851.81;2374620;73;51547;-78
2020/12/08 02:50:03;;;;;;;10.15;7.22;;;;;;;19.28;52.29;99846.45;2374551;75;50669;-77
2020/12/08 02:53:05;;;;;;;10.55;7.00;;;;;;;19.27;52.43;99850.18;2374306;74;50669;-77
2020/12/08 02:56:07;;;;;;;14.90;7.78;;;;;;;19.26;52.37;99851.19;2374331;75;51491;-77
2020/12/08 02:59:10;;;;;;;11.73;7.42;;;;;;;19.27;52.31;99856.89;2374052;75;50462;-77
2020/12/08 03:02:12;;;;;;;11.53;7.60;;;;;;;19.24;52.38;99853.28;2373436;73;50321;-77
2020/12/08 03:05:14;;;;;;;10.10;7.60;;;;;;;19.25;52.28;99857.60;2373500;74;50691;-78
2020/12/08 03:08:16;;;;;;;12.55;6.92;;;;;;;19.24;52.27;99859.98;2373430;75;51471;-77
2020/12/08 03:11:19;;;;;;;11.60;7.50;;;;;;;19.25;52.26;99860.28;2373513;74;50339;-77
2020/12/08 03:14:21;;;;;;;10.28;7.20;;;;;;;19.24;52.25;99861.33;2341692;75;50712;-77
2020/12/08 03:17:23;;;;;;;11.08;7.35;;;;;;;19.22;52.33;99862.56;2332931;75;51494;-78
2020/12/08 03:20:28;;;;;;;11.12;7.45;;;;;;;19.22;52.32;99866.06;2332852;76;51560;-77
2020/12/08 03:23:30;;;;;;;12.55;7.97;;;;;;;19.21;52.43;99871.63;2332969;75;51631;-77
2020/12/08 03:26:37;;;;;;;10.15;7.47;;;;;;;19.20;52.39;99865.44;2332833;76;51449;-77
2020/12/08 03:29:36;;;;;;;11.83;7.97;;;;;;;19.17;52.47;99865.86;2331575;76;22627;-77
2020/12/08 03:32:38;;;;;;;12.65;7.95;;;;;;;19.16;52.50;99873.58;2332558;75;50780;-76
2020/12/08 03:35:41;;;;;;;11.03;7.50;;;;;;;19.17;52.35;99873.91;2332928;76;51558;-76
2020/12/08 03:38:43;;;;;;;11.83;7.72;;;;;;;19.17;52.47;99877.11;2332846;76;50787;-77
2020/12/08 03:41:45;;;;;;;11.18;7.80;;;;;;;19.17;52.31;99864.52;2332761;76;49969;-76
2020/12/08 03:44:47;;;;;;;12.03;7.62;;;;;;;19.17;52.34;99868.54;2332807;76;50721;-77
2020/12/08 03:47:49;;;;;;;14.30;8.83;;;;;;;19.16;52.34;99870.89;2332950;75;52420;-77
2020/12/08 03:50:52;;;;;;;13.32;8.38;;;;;;;19.13;52.48;99869.97;2332791;76;51543;-76
2020/12/08 03:53:54;;;;;;;11.20;7.72;;;;;;;19.15;52.37;99866.58;2332388;76;51539;-76
2020/12/08 03:56:56;;;;;;;11.48;8.40;;;;;;;19.13;52.36;99867.29;2332630;75;51532;-77
2020/12/08 03:59:58;;;;;;;13.48;8.63;;;;;;;19.12;52.41;99874.52;2332543;76;51529;-77
2020/12/08 04:03:00;;;;;;;12.63;8.23;;;;;;;19.13;52.41;99865.95;2332638;76;50349;-77
2020/12/08 04:06:03;;;;;;;9.88;7.60;;;;;;;19.12;52.31;99864.31;2334193;76;50345;-76
2020/12/08 04:09:05;;;;;;;11.48;7.87;;;;;;;19.13;52.32;99868.62;2339855;76;51543;-77
2020/12/08 04:12:08;;;;;;;11.65;7.62;;;;;;;19.12;52.26;99864.31;2341486;74;51587;-77
2020/12/08 04:15:10;;;;;;;11.85;8.30;;;;;;;19.10;52.29;99862.34;2382028;74;51560;-76
2020/12/08 04:18:12;;;;;;;13.48;8.08;;;;;;;19.10;52.30;99863.69;2382817;74;50389;-75
2020/12/08 04:21:17;;;;;;;12.65;8.05;;;;;;;19.09;52.36;99866.06;2381246;74;50216;-76
2020/12/08 04:24:20;;;;;;;13.85;8.63;;;;;;;19.07;52.46;99859.55;2380319;74;50477;-77
2020/12/08 04:27:22;;;;;;;11.05;8.18;;;;;;;19.09;52.28;99860.70;2380613;74;50683;-77
2020/12/08 04:30:24;;;;;;;12.10;7.55;;;;;;;19.09;52.24;99870.09;2380717;74;51533;-76
2020/12/08 04:33:26;;;;;;;12.73;8.35;;;;;;;19.08;52.25;99860.38;2381409;74;51384;-77
2020/12/08 04:36:28;;;;;;;14.10;8.90;;;;;;;19.08;52.17;99857.17;2382054;74;50718;-76
2020/12/08 04:39:31;;;;;;;12.70;8.48;;;;;;;19.07;52.19;99857.39;2381544;74;51893;-76
2020/12/08 04:42:33;;;;;;;14.23;8.10;;;;;;;19.05;52.31;99856.77;2379411;74;50451;-76
2020/12/08 04:45:35;;;;;;;12.88;8.98;;;;;;;19.07;52.25;99866.78;2373824;75;50812;-76
2020/12/08 04:48:37;;;;;;;12.75;8.73;;;;;;;19.06;52.23;99867.80;2373639;73;50700;-77
2020/12/08 04:51:40;;;;;;;16.20;9.05;;;;;;;19.04;52.32;99866.67;2373578;74;51533;-77
2020/12/08 04:54:42;;;;;;;12.03;8.48;;;;;;;19.03;52.23;99874.39;2373614;74;50386;-77
2020/12/08 04:57:45;;;;;;;12.20;8.83;;;;;;;19.04;52.21;99861.83;2373627;75;50673;-78
2020/12/08 05:00:47;;;;;;;12.63;8.20;;;;;;;19.03;52.27;99868.20;2373467;74;51517;-77
2020/12/08 05:03:58;;;;;;;12.25;7.85;;;;;;;19.02;52.26;99871.94;2373465;73;51506;-77
2020/12/08 05:07:06;;;;;;;11.75;8.35;;;;;;;19.02;52.32;99867.91;2372254;74;50495;-76
2020/12/08 05:10:09;;;;;;;15.65;9.30;;;;;;;19.00;52.27;99868.10;2373496;75;51488;-77
2020/12/08 05:13:26;;;;;;;13.65;9.00;;;;;;;18.98;52.37;99872.02;2373436;74;51499;-77
2020/12/08 05:16:29;;;;;;;12.55;8.53;;;;;;;18.98;52.23;99874.18;2373792;75;50753;-77
2020/12/08 05:19:31;;;;;;;13.68;8.80;;;;;;;18.98;52.23;99872.02;2373597;75;51545;-77
2020/12/08 05:22:33;;;;;;;15.03;8.88;;;;;;;18.99;52.17;99874.51;2373434;75;50741;-75
2020/12/08 05:25:35;;;;;;;11.63;8.28;;;;;;;19.01;52.16;99883.17;2373586;73;50366;-75
2020/12/08 05:28:38;;;;;;;11.80;8.50;;;;;;;19.04;52.07;99884.11;2373451;75;50297;-75
2020/12/08 05:31:44;;;;;;;17.15;9.30;;;;;;;19.05;52.13;99888.42;2373340;73;51607;-78
2020/12/08 05:34:44;;;;;;;14.30;9.15;;;;;;;19.07;52.16;99892.25;2373244;74;22347;-78
2020/12/08 05:37:47;;;;;;;13.00;8.68;;;;;;;19.08;52.21;99881.83;2372567;75;52547;-78
2020/12/08 05:40:50;;;;;;;14.45;8.98;;;;;;;19.08;52.30;99896.05;2351053;75;50426;-77
2020/12/08 05:43:52;;;;;;;13.00;8.88;;;;;;;19.08;52.35;99897.39;2337397;75;50506;-77
2020/12/08 05:46:54;;;;;;;13.35;8.68;;;;;;;19.11;52.38;99897.50;2351757;75;50709;-77
2020/12/08 05:50:02;;;;;;;15.30;8.63;;;;;;;19.12;52.38;99893.80;2345000;75;51509;-77
2020/12/08 05:53:05;;;;;;;13.90;8.63;;;;;;;19.13;52.35;99898.12;2359461;75;51629;-78
2020/12/08 05:56:09;;;;;;;16.65;8.50;;;;;;;19.15;52.42;99896.89;2373527;75;50794;-77
2020/12/08 05:59:11;;;;;;;13.65;8.20;;;;;;;19.20;52.41;99894.94;2356835;74;51553;-77
2020/12/08 06:02:13;;;;;;;17.10;8.68;;;;;;;19.36;51.88;99899.89;2364138;75;51524;-76
2020/12/08 06:05:29;;;;;;;13.45;8.10;;;;;;;19.44;51.70;99900.20;2370686;75;50706;-78
2020/12/08 06:08:31;;;;;;;14.18;9.35;;;;;;;19.45;51.77;99897.02;2382129;74;51567;-78
2020/12/08 06:11:33;;;;;;;14.33;7.85;;;;;;;19.49;51.62;99900.92;2341049;74;50362;-78
2020/12/08 06:14:36;;;;;;;17.87;8.15;;;;;;;19.60;51.40;99900.31;2363349;74;50420;-77
2020/12/08 06:17:46;;;;;;;22.05;8.98;;;;;;;19.57;54.64;99912.30;2381373;74;50758;-76
2020/12/08 06:20:48;;;;;;;18.27;9.05;;;;;;;19.64;53.25;99918.16;2360238;75;50493;-76
2020/12/08 06:23:53;;;;;;;16.40;8.55;;;;;;;19.69;52.96;99920.55;2365953;74;50319;-76
2020/12/08 06:26:55;;;;;;;13.13;7.75;;;;;;;19.71;52.62;99921.17;2400723;74;51565;-76
2020/12/08 06:29:57;;;;;;;17.02;8.00;;;;;;;19.73;52.74;99927.17;2401593;74;50165;-78
2020/12/08 06:33:01;;;;;;;15.65;8.70;;;;;;;19.79;52.55;99925.50;2401707;74;50308;-79
2020/12/08 06:36:04;;;;;;;17.12;7.60;;;;;;;19.79;52.53;99926.33;2401872;74;50754;-78
2020/12/08 06:39:10;;;;;;;18.15;8.95;;;;;;;19.84;52.48;99930.25;2385113;74;50318;-78
2020/12/08 06:42:13;;;;;;;16.45;7.80;;;;;;;19.88;52.49;99926.92;2360419;75;51574;-77
2020/12/08 06:45:20;;;;;;;20.45;8.78;;;;;;;19.92;52.44;99940.77;2382911;74;50409;-77
2020/12/08 06:48:22;;;;;;;20.35;8.38;;;;;;;19.97;52.41;99936.41;2389859;74;50394;-77
2020/12/08 06:51:24;;;;;;;17.95;8.05;;;;;;;19.98;52.35;99938.58;2402328;74;50634;-76
2020/12/08 06:54:27;;;;;;;22.22;9.13;;;;;;;20.01;52.32;99942.18;2392084;74;50433;-75
2020/12/08 06:57:29;;;;;;;17.27;9.60;;;;;;;20.05;52.25;99945.29;2387254;74;50704;-77
2020/12/08 07:00:31;;;;;;;15.88;8.33;;;;;;;20.13;52.01;99947.22;2361056;75;51487;-77
2020/12/08 07:03:33;;;;;;;29.82;9.28;;;;;;;20.15;52.05;99945.69;2369550;74;50699;-77
2020/12/08 07:06:35;;;;;;;21.60;9.40;;;;;;;20.18;51.97;99948.76;2387370;74;51507;-77
2020/12/08 07:09:38;;;;;;;21.23;8.98;;;;;;;20.27;51.76;99953.90;2385392;73;51491;-77
2020/12/08 07:12:41;;;;;;;14.30;8.00;;;;;;;20.33;51.62;99954.41;2383334;74;50364;-77
2020/12/08 07:15:45;;;;;;;20.25;8.98;;;;;;;20.35;51.45;99956.37;2363940;74;50773;-76
2020/12/08 07:18:48;;;;;;;23.90;8.70;;;;;;;20.42;51.22;99955.32;2359287;75;50743;-76
2020/12/08 07:22:08;;;;;;;19.15;8.50;;;;;;;20.45;51.01;99963.48;2359732;75;50416;-76
2020/12/08 07:25:07;;;;;;;17.77;9.35;;;;;;;20.48;50.84;99964.39;2360029;75;22566;-76
2020/12/08 07:28:10;;;;;;;17.35;8.48;;;;;;;20.50;50.74;99973.56;2360348;75;51659;-75
2020/12/08 07:31:20;;;;;;;19.65;9.73;;;;;;;20.49;50.65;99971.41;2360248;75;50707;-76
2020/12/08 07:34:22;;;;;;;12.37;8.23;;;;;;;20.56;50.49;99972.24;2360327;75;51459;-75
2020/12/08 07:37:24;;;;;;;14.30;8.60;;;;;;;20.63;50.21;99974.39;2361350;75;50414;-76
2020/12/08 07:40:34;;;;;;;20.40;8.95;;;;;;;20.62;50.15;99970.03;2361399;75;50292;-76
2020/12/08 07:43:37;;;;;;;22.25;8.50;;;;;;;20.62;50.15;99967.34;2360469;74;51591;-77
2020/12/08 07:46:40;;;;;;;16.70;8.43;;;;;;;20.65;50.03;99972.33;2361308;75;51617;-78
2020/12/08 07:49:43;;;;;;;16.70;8.73;;;;;;;20.75;49.77;99973.72;2360183;75;50404;-78
2020/12/08 07:52:48;;;;;;;14.00;8.78;;;;;;;20.73;49.78;99977.98;2361274;75;50467;-77
2020/12/08 07:55:50;;;;;;;16.75;8.60;;;;;;;20.79;49.57;99974.42;2358212;75;50439;-78
2020/12/08 07:58:53;;;;;;;16.52;9.23;;;;;;;20.76;49.64;99974.04;2360146;75;51552;-78
2020/12/08 08:01:56;;;;;;;18.62;9.15;;;;;;;20.79;49.59;99984.36;2359901;75;51448;-77
2020/12/08 08:04:58;;;;;;;18.17;8.93;;;;;;;20.86;49.36;99998.08;2360806;74;51562;-78
2020/12/08 08:08:01;;;;;;;17.27;8.85;;;;;;;20.92;49.38;99992.36;2378559;74;51471;-78
2020/12/08 08:11:04;;;;;;;20.12;8.45;;;;;;;20.98;49.28;99994.70;2373808;74;50490;-78
2020/12/08 08:14:06;;;;;;;13.88;8.68;;;;;;;21.02;49.11;99996.75;2376997;74;50435;-78
2020/12/08 08:17:09;;;;;;;18.12;8.33;;;;;;;21.14;48.83;100002.79;2403893;74;50566;-77
2020/12/08 08:20:11;;;;;;;14.78;8.13;;;;;;;21.16;48.68;99998.84;2373346;74;50737;-75
2020/12/08 08:23:13;;;;;;;12.98;7.90;;;;;;;21.18;48.66;100008.88;2375432;74;51501;-75
2020/12/08 08:26:16;;;;;;;19.20;9.20;;;;;;;21.22;48.51;100011.45;2382887;74;50295;-75
2020/12/08 08:29:18;;;;;;;14.63;8.28;;;;;;;21.19;48.57;100011.86;2380059;74;50632;-76
2020/12/08 08:32:20;;;;;;;14.05;8.03;;;;;;;21.24;48.58;100018.76;2382870;74;50940;-73
2020/12/08 08:35:23;;;;;;;15.10;8.65;;;;;;;21.13;49.19;100013.25;2390645;74;50276;-76
2020/12/08 08:38:28;;;;;;;14.68;8.58;;;;;;;21.07;49.42;100020.33;2388998;74;51453;-76
2020/12/08 08:41:30;;;;;;;15.68;8.15;;;;;;;21.00;49.51;100019.00;2397317;74;51639;-75
2020/12/08 08:44:33;;;;;;;18.87;8.33;;;;;;;20.92;49.67;100015.22;2360597;74;50584;-76
2020/12/08 08:47:35;;;;;;;14.10;8.43;;;;;;;20.96;49.61;100012.42;2360196;75;50391;-76
2020/12/08 08:50:37;;;;;;;17.62;8.30;;;;;;;20.98;49.51;100017.04;2370841;74;50738;-74
2020/12/08 08:53:40;;;;;;;20.40;8.20;;;;;;;21.02;49.44;100016.11;2398402;74;51427;-76
2020/12/08 08:56:42;;;;;;;13.98;8.38;;;;;;;21.02;49.45;100022.31;2360501;74;51619;-75
2020/12/08 08:59:46;;;;;;;16.27;8.33;;;;;;;21.05;49.28;100012.45;2359667;75;50362;-75
2020/12/08 09:02:48;;;;;;;17.65;8.55;;;;;;;21.05;49.21;100011.11;2359656;75;24514;-75
2020/12/08 09:05:51;;;;;;;18.70;8.58;;;;;;;21.08;49.12;100013.37;2359677;75;50342;-76
2020/12/08 09:08:53;;;;;;;13.90;8.28;;;;;;;21.14;48.99;100013.02;2359814;75;50170;-76
2020/12/08 09:11:56;;;;;;;15.90;9.15;;;;;;;21.09;49.06;100009.66;2372206;75;51509;-75
2020/12/08 09:15:00;;;;;;;13.95;8.48;;;;;;;21.07;49.05;100007.70;2339109;74;51619;-75
2020/12/08 09:18:02;;;;;;;17.90;9.03;;;;;;;21.04;49.08;100014.86;2340304;74;22416;-76
2020/12/08 09:21:04;;;;;;;13.40;8.98;;;;;;;20.99;49.15;100015.17;2365867;74;51526;-76
2020/12/08 09:24:07;;;;;;;16.65;9.28;;;;;;;20.93;49.21;100020.89;2380605;74;50331;-76
2020/12/08 09:27:09;;;;;;;16.80;10.08;;;;;;;20.92;49.21;100016.56;2380790;74;50712;-75
2020/12/08 09:30:12;;;;;;;18.75;10.80;;;;;;;20.94;49.15;100021.22;2380813;74;51661;-77
2020/12/08 09:33:14;;;;;;;17.40;10.75;;;;;;;20.95;49.08;100022.85;2380764;74;51468;-76
2020/12/08 09:36:16;;;;;;;22.02;11.30;;;;;;;20.99;48.99;100024.09;2380732;74;50369;-75
2020/12/08 09:39:19;;;;;;;20.35;11.95;;;;;;;21.00;48.95;100025.72;2357316;74;50683;-76
2020/12/08 09:42:21;;;;;;;19.57;12.20;;;;;;;21.04;48.85;100032.84;2375839;74;51557;-76
2020/12/08 09:45:24;;;;;;;20.85;12.68;;;;;;;21.03;48.85;100025.29;2339648;76;51396;-75
2020/12/08 09:48:27;;;;;;;24.20;13.50;;;;;;;21.06;48.76;100030.77;2339878;76;50003;-75
2020/12/08 09:51:29;;;;;;;22.50;13.38;;;;;;;21.05;48.74;100021.05;2339669;75;50361;-74
2020/12/08 09:54:31;;;;;;;27.02;13.55;;;;;;;21.05;48.73;100028.59;2339703;76;51509;-76
2020/12/08 09:57:34;;;;;;;22.37;13.20;;;;;;;21.01;48.82;100028.70;2339777;76;50348;-76
2020/12/08 10:00:36;;;;;;;26.10;14.45;;;;;;;21.06;48.68;100021.34;2339593;76;52276;-76
2020/12/08 10:03:38;;;;;;;25.57;14.25;;;;;;;21.05;48.67;100019.19;2339849;76;50244;-76
2020/12/08 10:06:41;;;;;;;26.30;14.65;;;;;;;21.01;48.67;100015.78;2339905;76;51392;-75
2020/12/08 10:09:44;;;;;;;21.52;13.68;;;;;;;20.96;48.76;100027.21;2345468;75;51538;-77
2020/12/08 10:12:46;;;;;;;27.13;15.45;;;;;;;20.92;48.77;100034.05;2359936;74;50620;-76
2020/12/08 10:15:48;;;;;;;23.30;13.95;;;;;;;20.90;48.81;100034.77;2360158;75;50227;-76
2020/12/08 10:18:51;;;;;;;22.58;14.93;;;;;;;20.91;48.81;100028.86;2359953;75;51540;-76
2020/12/08 10:21:57;;;;;;;24.77;15.15;;;;;;;20.88;48.83;100019.36;2360127;75;51522;-76
2020/12/08 10:24:59;;;;;;;26.35;15.23;;;;;;;20.92;48.78;100021.13;2360417;75;50527;-76
2020/12/08 10:28:02;;;;;;;27.25;15.60;;;;;;;20.96;48.67;100010.22;2360489;75;49960;-76
2020/12/08 10:31:04;;;;;;;24.67;15.25;;;;;;;20.97;48.61;100009.20;2360441;75;50774;-77
2020/12/08 10:34:08;;;;;;;29.40;15.13;;;;;;;20.99;48.56;100013.83;2360426;75;51508;-76
2020/12/08 10:37:10;;;;;;;23.12;14.85;;;;;;;21.06;48.39;100022.16;2360472;75;51582;-76
2020/12/08 10:40:13;;;;;;;27.52;15.75;;;;;;;21.01;48.50;100017.13;2360493;75;51556;-77
2020/12/08 10:43:15;;;;;;;22.82;14.93;;;;;;;21.02;48.42;100016.11;2360079;75;50378;-77
2020/12/08 10:46:18;;;;;;;20.85;14.30;;;;;;;20.99;48.49;100028.13;2360247;75;50903;-77
2020/12/08 10:49:23;;;;;;;25.05;15.38;;;;;;;20.94;48.55;100022.56;2359821;75;51397;-75
2020/12/08 10:52:30;;;;;;;22.07;14.05;;;;;;;20.89;48.65;100026.41;2359626;75;50772;-78
2020/12/08 10:55:29;;;;;;;24.45;15.18;;;;;;;20.85;48.70;100015.23;2302920;75;22390;-76
2020/12/08 10:58:33;;;;;;;21.10;14.50;;;;;;;20.89;48.66;100025.06;2359928;75;52251;-76
2020/12/08 11:01:35;;;;;;;23.65;14.90;;;;;;;20.93;48.54;100022.23;2359786;75;51599;-77
2020/12/08 11:04:38;;;;;;;21.35;14.35;;;;;;;20.98;48.42;100015.70;2359867;75;50376;-75
2020/12/08 11:07:40;;;;;;;20.68;14.13;;;;;;;20.98;48.41;100018.91;2359887;75;50688;-75
2020/12/08 11:10:42;;;;;;;21.80;14.80;;;;;;;20.95;48.49;100013.97;2351294;75;51472;-76
2020/12/08 11:13:45;;;;;;;22.67;14.30;;;;;;;20.99;48.40;100016.02;2339336;75;50394;-76
2020/12/08 11:16:47;;;;;;;23.57;15.08;;;;;;;20.98;48.39;100006.81;2339813;76;51664;-76
2020/12/08 11:19:50;;;;;;;21.90;13.98;;;;;;;20.96;48.44;100004.84;2339913;76;50400;-75
2020/12/08 11:22:52;;;;;;;23.05;14.43;;;;;;;20.96;48.38;100009.73;2339902;76;51462;-77
2020/12/08 11:25:54;;;;;;;24.02;15.13;;;;;;;20.96;48.37;100007.53;2339824;75;51536;-77
2020/12/08 11:28:57;;;;;;;21.20;14.05;;;;;;;20.89;48.49;100018.34;2339861;76;50324;-75
2020/12/08 11:31:59;;;;;;;23.15;14.07;;;;;;;20.82;48.56;100014.84;2317459;76;50340;-74
2020/12/08 11:35:01;;;;;;;24.12;14.65;;;;;;;20.88;48.49;100022.05;2339775;75;51630;-76
2020/12/08 11:38:04;;;;;;;24.85;14.65;;;;;;;20.90;48.40;100017.29;2339566;76;51556;-76
2020/12/08 11:41:06;;;;;;;23.92;14.18;;;;;;;20.93;48.30;100023.58;2339748;76;50962;-76
2020/12/08 11:44:11;;;;;;;24.10;14.18;;;;;;;20.93;48.30;100030.30;2339396;75;51415;-76
2020/12/08 11:47:13;;;;;;;18.73;13.58;;;;;;;20.97;48.25;100032.06;2340941;75;22417;-76
2020/12/08 11:50:15;;;;;;;21.42;13.80;;;;;;;20.95;48.28;100029.58;2340046;76;50742;-76
2020/12/08 11:53:17;;;;;;;22.37;14.40;;;;;;;20.98;48.21;100029.14;2339711;76;51409;-76
2020/12/08 11:56:20;;;;;;;22.30;14.38;;;;;;;20.98;48.20;100029.14;2339938;76;51479;-77
2020/12/08 11:59:22;;;;;;;19.95;13.65;;;;;;;20.97;48.21;100036.92;2339803;75;50327;-76
2020/12/08 12:02:24;;;;;;;22.15;14.20;;;;;;;20.93;48.30;100042.93;2340035;76;51532;-76
2020/12/08 12:05:27;;;;;;;21.37;14.13;;;;;;;20.87;48.38;100046.78;2339894;76;50415;-77
2020/12/08 12:08:29;;;;;;;21.35;13.40;;;;;;;20.81;48.43;100047.64;2340114;76;50718;-76
2020/12/08 12:11:31;;;;;;;21.87;14.00;;;;;;;20.90;48.23;100048.74;2345818;75;50347;-76
2020/12/08 12:14:34;;;;;;;23.20;14.00;;;;;;;20.91;48.19;100044.51;2378081;74;50723;-75
2020/12/08 12:17:36;;;;;;;20.12;13.75;;;;;;;20.96;48.09;100032.59;2383683;74;49907;-77
2020/12/08 12:20:38;;;;;;;18.85;13.68;;;;;;;20.94;48.18;100031.97;2383189;74;50398;-77
2020/12/08 12:23:41;;;;;;;17.30;12.68;;;;;;;21.01;48.02;100028.70;2382016;74;50296;-76
2020/12/08 12:26:44;;;;;;;20.55;13.58;;;;;;;21.06;47.89;100026.20;2382401;74;50554;-77
2020/12/08 12:29:46;;;;;;;21.07;13.40;;;;;;;21.05;47.91;100033.98;2382763;74;51636;-76
2020/12/08 12:32:49;;;;;;;22.45;13.98;;;;;;;21.01;48.04;100035.44;2382478;74;50385;-77
2020/12/08 12:35:51;;;;;;;18.60;12.95;;;;;;;20.98;48.10;100041.25;2382639;74;50757;-77
2020/12/08 12:38:57;;;;;;;19.60;12.88;;;;;;;20.91;48.21;100040.97;2373287;74;51550;-77
2020/12/08 12:41:59;;;;;;;19.87;13.45;;;;;;;20.83;48.29;100040.69;2374854;74;50358;-75
2020/12/08 12:45:02;;;;;;;21.65;13.65;;;;;;;20.86;48.28;100046.48;2356368;74;50730;-78
2020/12/08 12:48:04;;;;;;;20.62;13.60;;;;;;;20.88;48.23;100036.84;2352691;74;51438;-76
2020/12/08 12:51:07;;;;;;;19.55;11.95;;;;;;;20.91;48.29;100042.31;2288747;77;52476;-75
2020/12/08 12:54:09;;;;;;;18.98;13.35;;;;;;;20.96;48.48;100039.31;2306604;76;50325;-75
2020/12/08 12:57:11;;;;;;;17.80;11.88;;;;;;;20.98;48.69;100039.90;2392574;74;50736;-75
2020/12/08 13:00:14;;;;;;;18.90;12.00;;;;;;;21.02;48.73;100039.79;2376418;74;51506;-77
2020/12/08 13:03:16;;;;;;;67.05;31.82;;;;;;;21.10;48.80;100042.23;2374895;74;51497;-76
2020/12/08 13:06:18;;;;;;;124.55;47.45;;;;;;;21.05;49.00;100043.39;2381635;74;51398;-76
2020/12/08 13:09:21;;;;;;;153.75;59.27;;;;;;;21.00;49.18;100047.24;2361438;74;51500;-75
2020/12/08 13:12:23;;;;;;;188.05;69.27;;;;;;;20.98;49.23;100054.69;2349190;74;49946;-75
2020/12/08 13:15:26;;;;;;;174.68;65.00;;;;;;;20.95;49.27;100044.89;2367566;74;50507;-75
2020/12/08 13:18:28;;;;;;;208.47;75.30;;;;;;;20.93;49.41;100049.66;2379977;74;51563;-74
2020/12/08 13:21:30;;;;;;;170.47;67.22;;;;;;;20.84;49.75;100048.55;2367629;74;51462;-75
2020/12/08 13:24:33;;;;;;;236.47;84.62;;;;;;;20.79;49.99;100052.92;2344316;75;50714;-76
2020/12/08 13:27:35;;;;;;;216.00;80.90;;;;;;;20.81;50.12;100049.51;2349956;73;50361;-74
2020/12/08 13:30:38;;;;;;;236.85;84.50;;;;;;;20.77;50.48;100052.30;2350458;75;52066;-75
2020/12/08 13:33:40;;;;;;;209.75;81.92;;;;;;;21.01;50.08;100056.95;2346455;75;51395;-75
2020/12/08 13:36:42;;;;;;;229.40;82.57;;;;;;;21.00;50.18;100053.97;2281718;76;51396;-75
2020/12/08 13:39:45;;;;;;;204.45;78.25;;;;;;;20.98;50.27;100054.69;2380420;74;51388;-75
2020/12/08 13:42:47;;;;;;;200.55;82.37;;;;;;;20.98;50.28;100059.25;2362409;74;51349;-75
2020/12/08 13:45:49;;;;;;;221.75;83.70;;;;;;;20.95;50.41;100065.06;2340229;75;50217;-76
2020/12/08 13:48:52;;;;;;;211.25;83.20;;;;;;;20.87;50.59;100067.47;2339408;76;51501;-76
2020/12/08 13:51:54;;;;;;;183.90;74.87;;;;;;;20.79;50.81;100059.12;2340157;74;50010;-75
2020/12/08 13:54:56;;;;;;;202.57;77.20;;;;;;;20.81;50.89;100058.92;2339669;76;51429;-76
2020/12/08 13:57:59;;;;;;;178.70;72.25;;;;;;;20.79;51.16;100065.02;2339568;76;50650;-75
2020/12/08 14:01:01;;;;;;;174.50;70.72;;;;;;;20.77;51.21;100061.72;2370156;75;51616;-75
2020/12/08 14:04:04;;;;;;;177.45;70.70;;;;;;;20.74;51.33;100062.14;2373633;75;50362;-75